Time;durP1;ratioP1;P1;durP2;ratioP2;P2;SDS_P1;SDS_P2;PMS_P1;PMS_P2;Temp;Humidity;BMP_temperature;BMP_pressure;BME280_temperature;BME280_humidity;BME280_pressure;Samples;Min_cycle;Max_cycle;Signal;HPM_P1;HPM_P2
2022/06/07 00:00:18;;;;;;;12.77;6.18;;;;;;;12.89;98.18;101203.00;5053336;28;20025;-41
2022/06/07 00:02:43;;;;;;;11.05;6.00;;;;;;;12.93;97.89;101203.41;5056978;28;20029;-42
2022/06/07 00:05:09;;;;;;;10.88;6.28;;;;;;;12.76;98.68;101205.50;5056978;28;20028;-43
2022/06/07 00:07:34;;;;;;;12.55;6.10;;;;;;;12.87;98.49;101199.78;5056515;28;20029;-42
2022/06/07 00:10:00;;;;;;;9.70;5.97;;;;;;;12.87;98.50;101207.56;5056765;28;20033;-42
2022/06/07 00:12:26;;;;;;;9.60;5.88;;;;;;;12.87;98.46;101210.16;5056708;28;20447;-43
2022/06/07 00:14:52;;;;;;;13.77;5.90;;;;;;;12.91;98.12;101202.78;5056488;28;20104;-42
2022/06/07 00:17:17;;;;;;;15.48;6.13;;;;;;;12.86;98.53;101206.78;5056363;28;20055;-43
2022/06/07 00:19:42;;;;;;;11.68;5.85;;;;;;;12.90;98.57;101199.41;5056886;28;20021;-42
2022/06/07 00:22:08;;;;;;;10.20;6.32;;;;;;;12.96;97.76;101200.44;5056351;28;20071;-42
2022/06/07 00:24:33;;;;;;;10.70;6.03;;;;;;;12.96;97.40;101196.03;5056357;28;20553;-41
2022/06/07 00:27:00;;;;;;;11.52;5.95;;;;;;;12.85;99.20;101192.19;5056125;28;20096;-42
2022/06/07 00:29:26;;;;;;;11.95;6.20;;;;;;;12.88;98.75;101191.78;5055849;28;20029;-43
2022/06/07 00:31:52;;;;;;;9.88;6.65;;;;;;;12.89;98.07;101182.25;5056695;28;20025;-41
2022/06/07 00:34:18;;;;;;;10.40;6.28;;;;;;;12.79;98.59;101185.16;5056548;28;20083;-41
2022/06/07 00:36:44;;;;;;;11.68;6.50;;;;;;;12.80;99.51;101175.59;5056556;28;20091;-42
2022/06/07 00:39:10;;;;;;;11.43;6.45;;;;;;;12.70;99.48;101175.94;5056020;28;20472;-42
2022/06/07 00:41:36;;;;;;;9.65;6.35;;;;;;;12.80;99.14;101179.00;5055980;28;20083;-43
2022/06/07 00:44:25;;;;;;;12.13;6.35;;;;;;;12.73;98.19;101179.97;5055937;28;20154;-42
2022/06/07 00:47:23;;;;;;;11.48;6.28;;;;;;;12.83;98.97;101178.63;5056477;28;20036;-43
2022/06/07 00:49:50;;;;;;;10.85;6.63;;;;;;;12.77;98.37;101173.38;5054614;28;20033;-43
2022/06/07 00:52:18;;;;;;;11.80;6.15;;;;;;;12.80;98.15;101173.81;5056018;28;20040;-41
2022/06/07 00:54:43;;;;;;;11.63;6.90;;;;;;;12.86;98.41;101173.06;5056240;28;20032;-41
2022/06/07 00:57:09;;;;;;;14.10;6.70;;;;;;;12.83;97.84;101175.22;5056057;28;20429;-42
2022/06/07 00:59:34;;;;;;;14.07;6.90;;;;;;;12.81;97.97;101164.25;5055598;28;20395;-43
2022/06/07 01:02:00;;;;;;;13.73;6.82;;;;;;;12.79;97.96;101167.00;5055507;28;20052;-42
2022/06/07 01:04:27;;;;;;;10.05;6.00;;;;;;;12.80;97.51;101160.84;5055744;28;20456;-41
2022/06/07 01:12:21;;;;;;;9.93;6.30;;;;;;;12.68;97.64;101166.75;5054394;28;20036;-42
2022/06/07 01:14:47;;;;;;;11.15;6.53;;;;;;;12.68;97.42;101153.78;5055312;28;20025;-43
2022/06/07 01:17:12;;;;;;;13.63;6.57;;;;;;;12.65;97.17;101160.16;5055408;28;20070;-42
2022/06/07 01:19:38;;;;;;;10.52;6.43;;;;;;;12.69;97.38;101160.56;5055823;28;20468;-42
2022/06/07 01:22:03;;;;;;;12.90;6.50;;;;;;;12.67;97.11;101162.56;5055882;28;20033;-41
2022/06/07 01:24:29;;;;;;;11.65;6.05;;;;;;;12.67;97.01;101159.97;5055187;28;20052;-42
2022/06/07 01:26:54;;;;;;;9.45;5.88;;;;;;;12.70;96.50;101157.00;5055102;28;20032;-42
2022/06/07 01:29:20;;;;;;;10.88;6.28;;;;;;;12.62;96.67;101156.16;5055302;28;20021;-42
2022/06/07 01:31:47;;;;;;;10.18;5.93;;;;;;;12.56;96.98;101151.72;5055194;28;20025;-42
2022/06/07 01:34:12;;;;;;;11.40;6.40;;;;;;;12.63;97.07;101152.59;5055251;28;20017;-42
2022/06/07 01:36:38;;;;;;;10.25;6.10;;;;;;;12.56;97.05;101148.34;5055094;28;20067;-45
2022/06/07 01:41:54;;;;;;;10.70;6.25;;;;;;;12.67;97.13;101154.78;5055852;28;20040;-41
2022/06/07 01:44:23;;;;;;;14.57;6.53;;;;;;;12.62;97.82;101150.16;5054740;28;20071;-41
2022/06/07 01:46:49;;;;;;;12.95;6.85;;;;;;;12.55;98.38;101144.97;5054582;28;20032;-42
2022/06/07 01:49:15;;;;;;;14.95;6.28;;;;;;;12.58;97.61;101144.56;5054913;28;20033;-43
2022/06/07 01:51:40;;;;;;;13.15;6.43;;;;;;;12.62;97.85;101144.97;5054887;28;20525;-44
2022/06/07 01:54:06;;;;;;;11.45;6.40;;;;;;;12.56;98.26;101141.34;5054908;28;20025;-43
2022/06/07 01:56:31;;;;;;;9.93;6.55;;;;;;;12.51;98.61;101142.91;5054430;28;20467;-43
2022/06/07 01:58:57;;;;;;;14.80;6.97;;;;;;;12.63;98.08;101142.22;5055051;28;20025;-44
2022/06/07 02:01:23;;;;;;;10.27;6.72;;;;;;;12.61;97.92;101139.00;5054567;28;20467;-44
2022/06/07 02:03:48;;;;;;;12.65;7.45;;;;;;;12.60;98.20;101136.59;5054472;28;20029;-41
2022/06/07 02:06:14;;;;;;;17.42;7.95;;;;;;;12.56;98.88;101136.19;5054890;28;20059;-41
2022/06/07 02:08:41;;;;;;;15.18;7.75;;;;;;;12.56;98.76;101135.38;5054422;28;20025;-42
2022/06/07 02:11:10;;;;;;;14.77;7.20;;;;;;;12.64;98.33;101130.03;5054426;28;20021;-42
2022/06/07 02:13:36;;;;;;;10.85;6.88;;;;;;;12.66;98.21;101125.47;5054174;28;20445;-42
2022/06/07 02:16:03;;;;;;;14.82;8.40;;;;;;;12.69;97.85;101125.09;5054216;28;20017;-42
2022/06/07 02:18:28;;;;;;;15.88;7.78;;;;;;;12.64;97.53;101125.66;5054420;28;20451;-43
2022/06/07 02:20:57;;;;;;;12.93;7.95;;;;;;;12.65;98.17;101118.66;5054376;28;20027;-41
2022/06/07 02:23:23;;;;;;;12.23;7.75;;;;;;;12.73;98.11;101121.09;5053420;28;20021;-41
2022/06/07 02:26:03;;;;;;;13.25;7.90;;;;;;;12.67;97.51;101116.69;5053902;28;20045;-42
2022/06/07 02:28:34;;;;;;;11.80;7.60;;;;;;;12.66;97.81;101122.88;5053858;28;20021;-40
2022/06/07 02:30:59;;;;;;;13.90;8.48;;;;;;;12.68;97.92;101115.69;5053797;28;20442;-43
2022/06/07 02:33:26;;;;;;;16.05;8.70;;;;;;;12.75;97.30;101119.13;5054084;28;20041;-43
2022/06/07 02:35:52;;;;;;;13.02;8.20;;;;;;;12.81;97.12;101122.75;5053853;28;20035;-42
2022/06/07 02:38:18;;;;;;;13.40;8.60;;;;;;;12.78;96.97;101116.16;5054033;28;20021;-43
2022/06/07 02:40:46;;;;;;;13.45;8.38;;;;;;;12.70;96.80;101118.91;5053910;28;20020;-42
2022/06/07 02:43:11;;;;;;;13.50;8.73;;;;;;;12.68;96.96;101117.50;5054208;28;20063;-43
2022/06/07 02:45:37;;;;;;;14.80;8.55;;;;;;;12.68;96.35;101118.28;5053934;28;20049;-43
2022/06/07 02:48:03;;;;;;;16.10;8.43;;;;;;;12.65;96.92;101129.03;5053805;28;20439;-41
2022/06/07 02:50:29;;;;;;;13.95;8.32;;;;;;;12.70;96.70;101120.69;5053871;28;20498;-42
2022/06/07 02:52:54;;;;;;;14.32;8.75;;;;;;;12.72;96.04;101118.72;5053727;28;20066;-43
2022/06/07 02:55:19;;;;;;;14.75;8.98;;;;;;;12.77;95.64;101105.97;5053747;28;20406;-42
2022/06/07 02:57:45;;;;;;;14.05;8.40;;;;;;;12.79;96.03;101106.56;5053749;28;20036;-42
2022/06/07 03:00:13;;;;;;;16.60;9.13;;;;;;;12.62;96.77;101116.47;5053965;28;20160;-43
2022/06/07 03:02:39;;;;;;;18.10;8.85;;;;;;;12.65;96.52;101116.06;5053222;28;20029;-43
2022/06/07 03:05:05;;;;;;;13.88;8.68;;;;;;;12.56;97.44;101107.66;5053596;28;20214;-42
2022/06/07 03:07:30;;;;;;;14.75;8.75;;;;;;;12.55;96.98;101113.84;5053578;28;20017;-42
2022/06/07 03:09:56;;;;;;;18.77;8.82;;;;;;;12.63;96.75;101111.09;5053532;28;20027;-42
2022/06/07 03:12:21;;;;;;;13.68;8.50;;;;;;;12.61;96.27;101109.69;5053165;28;20020;-42
2022/06/07 03:14:47;;;;;;;13.07;8.50;;;;;;;12.64;95.74;101097.13;5053207;28;20056;-43
2022/06/07 03:17:13;;;;;;;16.10;8.77;;;;;;;12.72;95.44;101113.53;5053494;28;20108;-43
2022/06/07 03:19:38;;;;;;;14.70;8.95;;;;;;;12.70;95.69;101110.31;5053529;28;20490;-44
2022/06/07 03:22:04;;;;;;;19.92;9.02;;;;;;;12.72;95.39;101116.13;5053204;28;20049;-43
2022/06/07 03:24:29;;;;;;;12.57;8.73;;;;;;;12.84;95.41;101106.81;5053106;28;20086;-43
2022/06/07 03:26:55;;;;;;;13.10;8.98;;;;;;;12.82;94.85;101111.38;5053083;28;20464;-43
2022/06/07 03:29:20;;;;;;;15.93;9.52;;;;;;;12.79;95.54;101114.34;5053032;28;20443;-42
2022/06/07 03:31:46;;;;;;;14.10;8.88;;;;;;;12.79;95.21;101115.16;5053326;28;20078;-43
2022/06/07 03:34:11;;;;;;;17.08;8.45;;;;;;;12.75;95.34;101111.34;5053498;28;20021;-42
2022/06/07 03:36:37;;;;;;;14.00;9.38;;;;;;;12.74;95.89;101112.31;5055375;28;20490;-42
2022/06/07 03:39:07;;;;;;;15.65;9.13;;;;;;;12.75;95.24;101123.53;5057259;28;20017;-42
2022/06/07 03:41:33;;;;;;;21.42;9.45;;;;;;;12.77;94.85;101122.31;5057411;28;20036;-43
2022/06/07 03:43:58;;;;;;;17.02;9.38;;;;;;;12.76;95.42;101115.53;5057140;28;20383;-42
2022/06/07 03:46:26;;;;;;;18.20;9.40;;;;;;;12.81;95.02;101113.16;5057078;28;20116;-43
2022/06/07 03:48:52;;;;;;;15.30;9.13;;;;;;;12.84;94.62;101112.78;5057194;28;20459;-42
2022/06/07 03:51:20;;;;;;;13.30;8.68;;;;;;;12.84;94.62;101114.59;5057251;28;20032;-42
2022/06/07 03:53:47;;;;;;;17.00;9.63;;;;;;;12.82;94.54;101114.75;5056884;28;20025;-41
2022/06/07 03:56:12;;;;;;;15.57;9.38;;;;;;;12.93;94.91;101121.19;5057420;28;20104;-41
2022/06/07 03:58:38;;;;;;;16.35;9.48;;;;;;;12.89;94.87;101122.59;5057098;28;20545;-45
2022/06/07 04:01:07;;;;;;;16.02;9.20;;;;;;;12.91;94.70;101125.75;5056911;28;20028;-43
2022/06/07 04:03:32;;;;;;;17.58;8.77;;;;;;;12.87;93.66;101127.16;5056117;28;20383;-43
2022/06/07 04:05:58;;;;;;;12.68;8.80;;;;;;;12.92;94.05;101121.38;5057253;28;20029;-43
2022/06/07 04:08:25;;;;;;;17.35;9.35;;;;;;;13.00;94.01;101137.56;5056493;28;20029;-42
2022/06/07 04:10:52;;;;;;;18.38;9.13;;;;;;;12.95;94.10;101127.00;5057079;28;20043;-42
2022/06/07 04:13:19;;;;;;;15.15;8.98;;;;;;;12.97;93.87;101126.78;5056976;28;20036;-43
2022/06/07 04:15:44;;;;;;;13.52;8.68;;;;;;;12.94;93.51;101127.97;5056745;28;20021;-43
2022/06/07 04:18:10;;;;;;;15.05;8.77;;;;;;;12.97;93.45;101130.19;5056429;28;20068;-42
2022/06/07 04:20:36;;;;;;;13.57;8.35;;;;;;;13.05;93.24;101135.19;5056350;28;20108;-43
2022/06/07 04:23:02;;;;;;;17.38;9.25;;;;;;;13.08;93.67;101134.00;5056967;28;20064;-43
2022/06/07 04:25:29;;;;;;;14.80;8.45;;;;;;;13.00;92.98;101134.97;5056499;28;20060;-43
2022/06/07 04:27:55;;;;;;;16.08;8.60;;;;;;;13.05;93.42;101137.78;5056451;28;20043;-43
2022/06/07 04:30:20;;;;;;;15.45;8.45;;;;;;;13.04;93.27;101141.41;5056478;28;20107;-43
2022/06/07 04:32:47;;;;;;;15.27;8.85;;;;;;;13.09;92.27;101133.84;5056115;28;20521;-42
2022/06/07 04:35:17;;;;;;;14.10;8.65;;;;;;;13.20;93.28;101135.03;5056111;28;20027;-42
2022/06/07 04:37:47;;;;;;;12.77;8.60;;;;;;;13.24;93.59;101133.69;5056340;28;20028;-42
2022/06/07 04:40:14;;;;;;;14.68;8.63;;;;;;;13.21;92.74;101144.44;5056237;28;20017;-50
2022/06/07 04:42:39;;;;;;;14.35;8.82;;;;;;;13.35;92.54;101137.53;5056144;28;20021;-42
2022/06/07 04:45:09;;;;;;;18.13;8.98;;;;;;;13.30;91.92;101140.72;5055931;28;20039;-41
2022/06/07 04:47:35;;;;;;;16.90;8.35;;;;;;;13.33;92.23;101144.72;5055857;28;20119;-43
2022/06/07 04:50:01;;;;;;;18.35;9.15;;;;;;;13.41;92.77;101138.56;5056218;28;20055;-42
2022/06/07 04:52:26;;;;;;;14.57;8.63;;;;;;;13.41;92.52;101149.72;5056080;28;20028;-41
2022/06/07 04:54:51;;;;;;;14.95;8.30;;;;;;;13.43;91.61;101134.72;5056100;28;20029;-42
2022/06/07 04:57:17;;;;;;;12.15;8.05;;;;;;;13.63;90.75;101141.75;5055659;28;20021;-42
2022/06/07 04:59:42;;;;;;;14.52;8.68;;;;;;;13.62;90.84;101142.78;5055890;28;20122;-42
2022/06/07 05:02:07;;;;;;;15.73;8.55;;;;;;;13.68;91.41;101149.75;5055652;28;20571;-41
2022/06/07 05:04:32;;;;;;;17.10;9.13;;;;;;;13.78;90.24;101147.56;5055824;28;20025;-41
2022/06/07 05:06:58;;;;;;;14.68;7.85;;;;;;;13.92;89.86;101149.16;5055802;28;20020;-40
2022/06/07 05:09:24;;;;;;;13.02;8.40;;;;;;;14.13;88.48;101150.00;5055691;28;20033;-41
2022/06/07 05:11:51;;;;;;;14.27;8.48;;;;;;;14.38;87.68;101155.34;5056014;28;20025;-42
2022/06/07 05:14:17;;;;;;;11.80;7.78;;;;;;;14.65;86.59;101153.53;5055354;28;20104;-42
2022/06/07 05:16:43;;;;;;;16.52;8.00;;;;;;;14.88;85.65;101145.25;5055223;28;20476;-41
2022/06/07 05:19:10;;;;;;;10.90;7.70;;;;;;;14.75;84.89;101145.28;5054925;28;20025;-42
2022/06/07 05:21:36;;;;;;;13.32;7.45;;;;;;;14.87;85.64;101147.06;5054715;28;20111;-42
2022/06/07 05:24:02;;;;;;;15.15;7.82;;;;;;;14.88;85.73;101156.44;5055718;28;20449;-41
2022/06/07 05:26:39;;;;;;;12.98;7.72;;;;;;;15.08;84.40;101153.75;5054961;28;20053;-43
2022/06/07 05:29:06;;;;;;;12.57;7.20;;;;;;;14.83;84.33;101156.25;5055348;28;20498;-40
2022/06/07 05:31:32;;;;;;;26.92;8.07;;;;;;;14.62;86.20;101149.53;5055314;28;20027;-43
2022/06/07 05:33:57;;;;;;;12.60;7.63;;;;;;;14.50;87.64;101152.91;5055315;28;20024;-42
2022/06/07 05:36:23;;;;;;;15.57;8.18;;;;;;;14.45;87.46;101151.72;5054997;28;20024;-42
2022/06/07 05:38:49;;;;;;;11.40;7.07;;;;;;;14.47;86.93;101158.53;5055187;28;20027;-43
2022/06/07 05:41:19;;;;;;;13.55;7.28;;;;;;;14.66;85.81;101160.31;5055268;28;20033;-41
2022/06/07 05:43:45;;;;;;;11.13;6.90;;;;;;;16.84;77.23;101161.63;5054920;28;20494;-41
2022/06/07 05:46:10;;;;;;;10.93;6.47;;;;;;;16.77;75.68;101160.88;5055111;28;20105;-42
2022/06/07 05:48:36;;;;;;;12.57;6.78;;;;;;;17.67;71.58;101154.88;5053354;28;20021;-43
2022/06/07 05:51:01;;;;;;;13.45;6.82;;;;;;;17.65;71.81;101156.91;5055016;28;20028;-41
2022/06/07 05:53:27;;;;;;;11.23;6.40;;;;;;;18.62;65.18;101157.28;5054932;28;20102;-43
2022/06/07 05:55:54;;;;;;;9.90;6.20;;;;;;;16.60;71.91;101158.84;5054833;28;20388;-42
2022/06/07 05:58:20;;;;;;;13.73;6.75;;;;;;;15.99;75.46;101162.22;5053491;28;20019;-42
2022/06/07 06:00:46;;;;;;;10.00;6.05;;;;;;;15.79;76.36;101168.41;5054372;28;20032;-42
2022/06/07 06:03:12;;;;;;;11.65;6.53;;;;;;;17.26;71.49;101165.13;5053049;28;20048;-43
2022/06/07 06:05:44;;;;;;;17.25;6.35;;;;;;;17.69;68.91;101168.50;5054334;28;20021;-42
2022/06/07 06:11:13;;;;;;;15.93;5.88;;;;;;;15.92;76.60;101161.50;5054745;28;20546;-43
2022/06/07 06:13:38;;;;;;;16.83;5.95;;;;;;;15.71;77.67;101160.06;5054116;28;20021;-42
2022/06/07 06:16:10;;;;;;;13.75;6.10;;;;;;;15.67;75.87;101162.22;5054105;28;20419;-43
2022/06/07 06:18:36;;;;;;;16.83;6.25;;;;;;;15.53;77.46;101161.50;5054495;28;20025;-44
2022/06/07 06:21:02;;;;;;;14.23;6.30;;;;;;;15.56;76.63;101168.13;5054520;28;20032;-42
2022/06/07 06:23:28;;;;;;;11.80;6.18;;;;;;;15.43;76.80;101169.00;5052774;28;20071;-49
2022/06/07 06:25:53;;;;;;;12.02;6.32;;;;;;;15.53;77.37;101168.53;5053859;28;20423;-43
2022/06/07 06:28:19;;;;;;;13.38;6.95;;;;;;;15.14;79.74;101154.75;5053914;28;20052;-41
2022/06/07 06:30:45;;;;;;;13.30;6.57;;;;;;;15.35;78.72;101159.63;5054647;28;20107;-42
2022/06/07 06:33:14;;;;;;;15.20;6.65;;;;;;;15.60;79.25;101165.91;5053730;28;20025;-41
2022/06/07 06:35:47;;;;;;;15.65;6.53;;;;;;;15.65;77.41;101163.44;5054313;28;20108;-41
2022/06/07 06:38:12;;;;;;;;;;;;;;;16.49;75.11;101159.56;5054166;28;20032;-42
2022/06/07 06:40:38;;;;;;;11.05;6.28;;;;;;;17.29;71.53;101169.91;5053620;28;19909;-43
2022/06/07 06:43:04;;;;;;;11.10;6.25;;;;;;;16.87;72.75;101169.00;5053661;28;20360;-43
2022/06/07 06:45:29;;;;;;;11.07;6.10;;;;;;;16.39;75.76;101165.25;5053641;28;20079;-42
2022/06/07 06:47:55;;;;;;;12.88;6.95;;;;;;;15.82;77.48;101174.97;5052443;28;20086;-43
2022/06/07 06:50:20;;;;;;;16.02;6.95;;;;;;;16.06;76.02;101167.41;5053453;28;20150;-43
2022/06/07 06:52:45;;;;;;;14.35;6.43;;;;;;;16.05;75.31;101174.41;5053504;28;20469;-41
2022/06/07 06:55:11;;;;;;;14.02;6.38;;;;;;;16.23;74.55;101174.47;5053446;28;20486;-42
2022/06/07 06:57:36;;;;;;;13.85;6.35;;;;;;;15.93;74.24;101171.69;5053734;28;20028;-42
2022/06/07 07:00:04;;;;;;;12.85;6.60;;;;;;;15.74;76.10;101178.66;5053174;28;20021;-43
2022/06/07 07:02:29;;;;;;;16.65;6.63;;;;;;;15.98;75.12;101176.28;5053369;28;20051;-42
2022/06/07 07:04:55;;;;;;;16.23;6.72;;;;;;;15.97;74.36;101174.69;5053190;28;20033;-42
2022/06/07 07:07:20;;;;;;;11.82;6.80;;;;;;;16.30;73.36;101187.44;5053291;28;20111;-43
2022/06/07 07:09:47;;;;;;;13.65;6.30;;;;;;;16.40;72.90;101177.31;5052601;28;20034;-43
2022/06/07 07:12:12;;;;;;;11.35;6.18;;;;;;;16.89;70.25;101188.66;5053238;28;20103;-42
2022/06/07 07:14:37;;;;;;;14.90;6.25;;;;;;;16.60;70.40;101187.56;5053437;28;20104;-43
2022/06/07 07:17:03;;;;;;;15.95;6.68;;;;;;;16.47;70.33;101187.66;5053744;28;20024;-44
2022/06/07 07:19:28;;;;;;;12.95;5.93;;;;;;;16.75;72.54;101187.19;5053771;28;20481;-42
2022/06/07 07:21:53;;;;;;;11.30;6.10;;;;;;;17.23;70.03;101194.25;5053238;28;20032;-41
2022/06/07 07:24:22;;;;;;;15.15;6.35;;;;;;;16.95;69.39;101187.00;5053200;28;20095;-42
2022/06/07 07:26:48;;;;;;;12.77;6.25;;;;;;;16.82;70.60;101184.53;5052983;28;20045;-42
2022/06/07 07:29:16;;;;;;;8.00;6.10;;;;;;;16.51;70.72;101177.59;5053263;28;20351;-42
2022/06/07 07:31:42;;;;;;;12.52;6.25;;;;;;;16.61;69.64;101183.13;5053422;28;20036;-42
2022/06/07 07:34:10;;;;;;;12.02;6.30;;;;;;;16.79;71.18;101184.97;5053437;28;20025;-43
2022/06/07 07:36:41;;;;;;;12.57;6.30;;;;;;;16.78;70.60;101186.78;5052984;28;20395;-43
2022/06/07 07:39:06;;;;;;;12.32;6.50;;;;;;;16.55;70.17;101186.59;5053089;28;20021;-45
2022/06/07 07:41:35;;;;;;;14.23;6.60;;;;;;;16.64;71.90;101180.88;5053416;28;20034;-43
2022/06/07 07:44:03;;;;;;;11.52;6.43;;;;;;;16.53;73.20;101189.41;5053065;28;20029;-44
2022/06/07 07:46:33;;;;;;;18.38;6.43;;;;;;;16.83;70.76;101192.16;5053031;28;20033;-44
2022/06/07 07:48:59;;;;;;;12.48;6.97;;;;;;;16.49;69.95;101187.47;5053168;28;20060;-44
2022/06/07 07:51:31;;;;;;;12.82;6.53;;;;;;;16.24;72.04;101191.69;5053243;28;20574;-44
2022/06/07 07:53:58;;;;;;;13.55;6.50;;;;;;;16.15;72.33;101186.97;5053323;28;20068;-44
2022/06/07 07:56:25;;;;;;;17.98;6.13;;;;;;;16.12;73.02;101182.19;5052859;28;20387;-44
2022/06/07 07:58:52;;;;;;;13.60;6.55;;;;;;;16.20;72.53;101193.13;5051602;28;20475;-43
2022/06/07 08:01:21;;;;;;;13.25;6.60;;;;;;;16.37;71.11;101192.56;5052904;28;20025;-44
2022/06/07 08:03:48;;;;;;;16.23;7.28;;;;;;;16.56;72.00;101186.38;5053146;28;20463;-44
2022/06/07 08:06:17;;;;;;;15.43;6.30;;;;;;;16.78;72.15;101186.00;5051554;28;20029;-44
2022/06/07 08:08:43;;;;;;;14.75;6.63;;;;;;;16.56;70.46;101190.78;5052245;28;20468;-44
2022/06/07 08:11:09;;;;;;;10.48;6.68;;;;;;;16.46;69.95;101199.94;5050983;28;20112;-44
2022/06/07 08:13:36;;;;;;;13.38;6.43;;;;;;;16.26;70.73;101195.91;5052974;28;20068;-45
2022/06/07 08:16:04;;;;;;;12.05;7.05;;;;;;;16.14;70.81;101198.38;5052744;28;20375;-44
2022/06/07 08:18:30;;;;;;;19.75;7.20;;;;;;;15.97;71.82;101211.19;5051787;28;20078;-43
2022/06/07 08:21:00;;;;;;;12.82;6.60;;;;;;;16.28;72.34;101204.28;5053407;28;20033;-45
2022/06/07 08:23:25;;;;;;;11.75;5.50;;;;;;;16.58;72.41;101205.22;5055918;28;20430;-44
2022/06/07 08:25:51;;;;;;;12.32;6.72;;;;;;;16.42;71.61;101208.38;5056286;28;20048;-44
2022/06/07 08:28:16;;;;;;;12.00;6.10;;;;;;;15.87;70.83;101210.84;5056368;28;20033;-44
2022/06/07 08:30:46;;;;;;;18.02;7.38;;;;;;;15.97;70.66;101213.78;5056276;28;20031;-45
2022/06/07 08:38:41;;;;;;;12.75;6.57;;;;;;;16.17;69.73;101197.97;5056872;28;20142;-43
2022/06/07 08:41:17;;;;;;;12.70;5.72;;;;;;;16.60;70.32;101211.03;5056367;28;20029;-43
2022/06/07 08:43:42;;;;;;;13.43;6.93;;;;;;;16.60;69.85;101207.59;5055891;28;20032;-44
2022/06/07 08:46:11;;;;;;;10.43;6.60;;;;;;;16.62;69.21;101206.38;5055849;28;20029;-43
2022/06/07 08:48:38;;;;;;;12.30;7.05;;;;;;;16.60;68.95;101218.84;5055875;28;20060;-45
2022/06/07 08:51:29;;;;;;;15.40;7.43;;;;;;;16.84;69.53;101216.44;5056137;28;20025;-42
2022/06/07 08:54:00;;;;;;;13.30;7.00;;;;;;;16.65;70.27;101212.97;5056019;28;20025;-45
2022/06/07 08:56:32;;;;;;;12.13;7.05;;;;;;;16.65;68.95;101215.59;5054507;28;20120;-42
2022/06/07 08:59:06;;;;;;;13.40;7.13;;;;;;;16.63;69.62;101207.16;5055660;28;20023;-45
2022/06/07 09:01:35;;;;;;;9.23;6.28;;;;;;;16.98;69.12;101211.88;5055667;28;20025;-43
2022/06/07 09:04:21;;;;;;;18.38;7.22;;;;;;;17.41;67.65;101208.31;5055636;28;20028;-43
2022/06/07 09:06:51;;;;;;;13.07;6.68;;;;;;;17.26;66.74;101214.75;5055494;28;20033;-44
2022/06/07 09:09:19;;;;;;;11.82;6.28;;;;;;;17.37;66.78;101221.00;5055259;28;20052;-44
2022/06/07 09:12:09;;;;;;;10.40;6.13;;;;;;;17.57;66.09;101221.53;5055156;28;20025;-43
2022/06/07 09:14:43;;;;;;;13.68;6.03;;;;;;;18.10;63.49;101214.75;5055616;28;20361;-44
2022/06/07 09:17:19;;;;;;;14.98;6.40;;;;;;;18.06;63.88;101215.44;5055200;28;20487;-43
2022/06/07 09:19:46;;;;;;;10.57;5.78;;;;;;;18.35;62.74;101217.16;5055527;28;20028;-44
2022/06/07 09:22:25;;;;;;;11.02;5.90;;;;;;;18.47;61.80;101212.72;5055295;28;20043;-43
2022/06/07 09:24:58;;;;;;;11.75;6.18;;;;;;;18.51;62.52;101213.06;5055026;28;20032;-43
2022/06/07 09:27:26;;;;;;;10.00;6.30;;;;;;;18.73;62.53;101213.28;5055349;28;20024;-45
2022/06/07 09:29:59;;;;;;;12.63;6.18;;;;;;;19.10;61.81;101212.94;5053794;28;20601;-44
2022/06/07 09:32:27;;;;;;;10.13;5.97;;;;;;;19.66;59.52;101213.22;5055349;28;20025;-43
2022/06/07 09:35:02;;;;;;;13.32;6.10;;;;;;;19.29;59.21;101209.13;5055386;28;20037;-44
2022/06/07 09:37:37;;;;;;;11.88;6.43;;;;;;;19.68;60.49;101219.81;5054892;28;20103;-43
2022/06/07 09:40:20;;;;;;;14.60;5.82;;;;;;;20.59;57.01;101211.72;5054998;28;20056;-41
2022/06/07 09:43:01;;;;;;;8.73;5.57;;;;;;;21.15;55.06;101209.00;5055002;28;20063;-43
2022/06/07 09:45:36;;;;;;;9.50;5.57;;;;;;;21.18;52.62;101219.00;5055141;28;20056;-42
2022/06/07 09:48:29;;;;;;;9.63;5.30;;;;;;;20.50;55.64;101211.31;5054740;28;20082;-43
2022/06/07 09:50:59;;;;;;;8.68;5.47;;;;;;;20.17;59.03;101208.75;5054637;28;20028;-42
2022/06/07 09:53:25;;;;;;;13.20;6.50;;;;;;;19.97;58.05;101217.13;5054704;28;20107;-42
2022/06/07 09:56:06;;;;;;;17.60;6.53;;;;;;;20.46;54.56;101204.19;5054758;28;20021;-41
2022/06/07 09:58:57;;;;;;;10.25;5.95;;;;;;;21.29;53.19;101215.44;5054820;28;20103;-42
2022/06/07 10:01:29;;;;;;;9.23;5.47;;;;;;;21.74;52.50;101202.97;5054450;28;20032;-41
2022/06/07 10:04:24;;;;;;;9.15;6.00;;;;;;;21.21;51.65;101212.47;5054766;28;20488;-42
2022/06/07 10:07:03;;;;;;;12.75;5.38;;;;;;;20.87;53.14;101210.78;5054672;28;20032;-43
2022/06/07 10:09:47;;;;;;;9.43;4.95;;;;;;;20.82;51.68;101209.91;5054240;28;20036;-42
2022/06/07 10:12:38;;;;;;;9.52;5.45;;;;;;;20.72;51.71;101211.38;5054166;28;20025;-43
2022/06/07 10:15:22;;;;;;;12.48;4.95;;;;;;;20.29;54.49;101214.72;5054401;28;20051;-46
2022/06/07 10:18:05;;;;;;;12.88;5.82;;;;;;;20.87;55.89;101209.97;5054978;28;20021;-42
2022/06/07 10:20:36;;;;;;;13.93;5.82;;;;;;;20.68;55.42;101223.41;5053990;28;20028;-42
2022/06/07 10:23:30;;;;;;;12.10;6.80;;;;;;;19.69;53.43;101213.53;5054836;28;20029;-42
2022/06/07 10:26:21;;;;;;;11.68;6.50;;;;;;;19.97;56.98;101211.88;5053766;28;20068;-41
2022/06/07 10:29:13;;;;;;;10.30;6.75;;;;;;;19.89;55.97;101214.91;5053939;28;20029;-42
2022/06/07 10:31:51;;;;;;;9.93;6.65;;;;;;;20.69;56.40;101214.50;5054233;28;20132;-42
2022/06/07 10:34:38;;;;;;;10.77;5.93;;;;;;;20.97;56.78;101215.34;5053997;28;20379;-42
2022/06/07 10:37:14;;;;;;;11.40;5.97;;;;;;;21.00;55.61;101222.72;5054096;28;20380;-43
2022/06/07 10:39:58;;;;;;;16.08;7.30;;;;;;;20.88;54.08;101214.97;5053792;28;20029;-43
2022/06/07 10:42:44;;;;;;;9.82;7.07;;;;;;;20.61;55.62;101209.66;5054066;28;20028;-42
2022/06/07 10:45:25;;;;;;;14.20;7.45;;;;;;;20.83;56.20;101219.38;5053476;28;20028;-42
2022/06/07 10:48:09;;;;;;;12.57;6.15;;;;;;;22.22;53.55;101222.31;5053690;28;20028;-43
2022/06/07 10:50:45;;;;;;;9.60;6.45;;;;;;;22.33;52.19;101208.16;5053775;28;20432;-41
2022/06/07 10:53:20;;;;;;;12.38;6.53;;;;;;;21.59;50.57;101217.59;5054079;28;20078;-41
2022/06/07 10:55:54;;;;;;;10.88;6.50;;;;;;;21.06;53.17;101213.06;5054231;28;20036;-40
2022/06/07 10:58:40;;;;;;;12.45;6.60;;;;;;;21.91;51.04;101214.16;5053689;28;20483;-43
2022/06/07 11:01:37;;;;;;;11.95;6.50;;;;;;;21.96;51.82;101211.56;5053707;28;20048;-42
2022/06/07 11:09:19;;;;;;;9.07;5.72;;;;;;;22.59;51.53;101206.44;5043417;28;20476;-45
2022/06/07 11:09:49;;;;;;;11.27;4.78;;;;;;;22.93;50.94;101214.75;5053103;28;20047;-42
2022/06/07 11:12:23;;;;;;;10.50;6.32;;;;;;;22.30;51.58;101212.09;5051947;28;20108;-42
2022/06/07 11:15:14;;;;;;;10.75;6.95;;;;;;;22.40;51.22;101207.91;5053130;28;20486;-42
2022/06/07 11:17:47;;;;;;;11.15;6.10;;;;;;;22.62;50.46;101219.09;5053332;28;20017;-43
2022/06/07 11:20:18;;;;;;;;;;;;;;;21.81;51.72;101217.50;5052238;28;20028;-42
2022/06/07 11:23:05;;;;;;;9.77;6.30;;;;;;;22.04;51.40;101212.94;5053379;28;19908;-42
2022/06/07 11:25:34;;;;;;;8.80;6.03;;;;;;;23.43;49.87;101202.72;5053224;28;20152;-41
2022/06/07 11:28:15;;;;;;;11.30;6.50;;;;;;;23.72;49.25;101209.38;5051783;28;20123;-42
2022/06/07 11:30:44;;;;;;;11.35;6.60;;;;;;;23.46;49.61;101204.06;5053197;28;20025;-42
2022/06/07 11:33:34;;;;;;;12.63;7.70;;;;;;;22.48;49.97;101205.59;5053055;28;20380;-42
2022/06/07 11:36:20;;;;;;;11.27;6.57;;;;;;;22.73;51.39;101210.19;5052265;28;20043;-42
2022/06/07 11:38:57;;;;;;;10.98;6.68;;;;;;;22.73;51.34;101207.56;5052750;28;20104;-42
2022/06/07 11:41:37;;;;;;;11.60;7.47;;;;;;;22.15;52.05;101213.78;5052510;28;20372;-42
2022/06/07 11:44:26;;;;;;;11.98;8.07;;;;;;;21.70;51.07;101204.53;5052915;28;20028;-42
2022/06/07 11:46:51;;;;;;;10.93;7.43;;;;;;;22.25;52.13;101209.41;5042227;28;20037;-42
2022/06/07 11:49:20;;;;;;;14.50;8.03;;;;;;;21.41;51.57;101212.69;5053204;28;20337;-43